AirNav   Everest Fuels
 
 1076 users online  

N05 Hackettstown Airport
Hackettstown, New Jersey, USA

GOING TO HACKETTSTOWN?


FAA INFORMATION EFFECTIVE 31 JANUARY 2019

Location

FAA Identifier: N05
Lat/Long: 40-49-12.3570N / 074-51-18.6020W
40-49.205950N / 074-51.310033W
40.8200992 / -74.8551672
(estimated)
Elevation: 670 ft. / 204 m (estimated)
Variation: 12W (1985)
From city: 3 miles SW of HACKETTSTOWN, NJ
Time zone: UTC -5 (UTC -4 during Daylight Saving Time)
Zip code: 07840

Airport Operations

Airport use: Open to the public
Activation date: 05/1942
Control tower: no
ARTCC: NEW YORK CENTER
FSS: MILLVILLE FLIGHT SERVICE STATION
NOTAMs facility: MIV (NOTAM-D service available)
Attendance: DAWN-DUSK
Wind indicator: yes
Segmented circle: no

Airport Communications

CTAF: 122.9
WX ASOS at SMQ (14 nm SE): 120.6 (908-722-2139)

Nearby radio navigation aids

VOR radial/distance  VOR name  Freq  Var
BWZr322/2.0BROADWAY VOR/DME114.2011W
STWr188/10.6STILLWATER VOR/DME109.6011W
SBJr350/15.1SOLBERG VOR/DME112.9010W
SAXr235/20.7SPARTA VORTAC115.7011W
FJCr088/27.8ALLENTOWN VORTAC117.5010W
ARDr014/34.1YARDLEY VOR/DME108.2010W
TEBr278/36.0TETERBORO VOR/DME108.4011W
HUOr210/37.3HUGUENOT VOR/DME116.1011W

 
NDB name  Hdg/Dist  Freq  Var  ID
CHATHAM297/19.925413WCAT -.-. .- -

Airport Services

Fuel available: 100LL
Parking: hangars and tiedowns
Airframe service: MINOR
Powerplant service: MINOR
Bottled oxygen: NONE
Bulk oxygen: NONE

Runway Information

Runway 5/23

Dimensions: 2200 x 50 ft. / 671 x 15 m
Surface: asphalt, in good condition
Weight bearing capacity: 
Single wheel: 5.0
RUNWAY 5  RUNWAY 23
Gradient: 0.8%0.8%
Traffic pattern: leftleft
Markings: nonenone
Obstructions: 27 ft. tree, 227 ft. from runway, 63 ft. right of centerline, 1:1 slope to clear
RWY 05 +51 FT TREES, 117 FT FM THLD,96 FT R.
9 ft. tree, 208 ft. from runway, 51 ft. left of centerline
RY 23 ROAD WITH 15 FT VEHICLES 45 FEET FROM RUNWAY END.

Airport Ownership and Management from official FAA records

Ownership: Privately-owned
Owner: DONALD SCHWANDA
115 AIRPORT RD
HACKETTSTOWN, NJ 07840
Phone 908-852-4664
Manager: DONALD AND JENNIFER SCHWANDA
115 AIRPORT RD
HACKETTSTOWN, NJ 07840
Phone 908-852-4664

Airport Operational Statistics

Aircraft based on the field: 23
Single engine airplanes: 23
    
Aircraft operations: avg 56/day *
79% local general aviation
21% transient general aviation
* for 12-month period ending 31 July 2018

Additional Remarks

FOR CD CTC NEW YORK APCH AT 800-645-3206.
DEER & BIRDS ON & INVOF APRT.

Instrument Procedures

There are no published instrument procedures at N05.

Some nearby airports with instrument procedures:

1N7 - Blairstown Airport (11 nm NW)
12N - Aeroflex-Andover Airport (12 nm NE)
KSMQ - Somerset Airport (14 nm SE)
N51 - Solberg-Hunterdon Airport (15 nm S)
N85 - Alexandria Airport (16 nm SW)
N40 - Sky Manor Airport (16 nm S)
N43 - Braden Airpark (18 nm W)
N53 - Stroudsburg-Pocono Airport (19 nm NW)
 
Loc | Ops | Rwys | IFR | FBO | Links
Com | Nav | Svcs | Stats | Notes
Area around N05 (Hackettstown Airport)
 
Road maps at: MapQuest Bing Google
 
Aerial photo
WARNING: Photo may not be current or correct
Aerial photo of N05 (Hackettstown Airport)
Photo by Paul Kerr.
Taken late June 2009

Do you have a better or more recent aerial photo of Hackettstown Airport that you would like to share? If so, please send us your photo.

 
Sectional chart

 
Airport distance calculator
Flying to Hackettstown Airport? Find the distance to fly.

From to N05

Sunrise and sunset
Times for 17-Feb-2019
 Local
(UTC-5)
 Zulu
(UTC)
Morning civil twilight06:2411:24
Sunrise06:5211:52
Sunset17:3522:35
Evening civil twilight18:0323:03

Current date and time
Zulu (UTC)  17-Feb-2019 17:24:20
Local (UTC-5)  17-Feb-2019 12:24:20
 
METAR
K12N 
13nm NE 
171654Z AUTO 00000KT 01/M09 A3013 RMK AO1 PRESRR SLP216 T00061094
KSMQ 
15nm SE 
ASOS 120.60 908-722-2139
171653Z AUTO 18008KT 10SM CLR 02/M09 A3014 RMK AO2 PRESRR SLP209 T00221094
KMMU 
20nm E 
171645Z 00000KT 10SM SCT250 01/M09 A3009
KFWN 
25nm NE 
171653Z AUTO 02004KT 10SM CLR 01/M08 A3008 RMK AO2 SLP191 T00111083 $
TAF
KABE 
29nm W 
171126Z 1712/1812 VRB03KT P6SM SCT200 FM171900 VRB04KT P6SM SCT070 BKN150 FM180200 13005KT 2SM -SN OVC010 FM180600 11005KT 1 1/2SM -SNPL OVC008 FM180900 VRB04KT 2SM -FZRAPL OVC008 FM181100 VRB03KT P6SM BKN004
KTTN 
32nm S 
171126Z 1712/1812 VRB04KT P6SM SKC FM172000 VRB04KT P6SM SCT070 BKN150 FM180300 11005KT 3SM -SNRA OVC008 FM180600 10005KT 2SM -RA BR OVC008 FM181100 VRB03KT 2SM -RA BR OVC003
KEWR 
32nm E 
171452Z 1715/1818 01007KT P6SM FEW250 FM171800 11004KT P6SM SCT250 FM172000 16006KT P6SM SCT100 BKN200 FM180300 09005KT 3SM -SNPL BR BKN015 OVC025 FM180700 05009KT 2SM -PLRA BR BKN008 FM180900 04011KT 2SM -RA BR BKN006 FM181200 03006KT 3SM -DZ BR OVC010 FM181500 36005KT 5SM -DZ BR OVC015 FM181700 33005KT P6SM BKN020 OVC030
NOTAMs
Click for the latest NOTAMs
NOTAMs are issued by the DoD/FAA and will open in a separate window not controlled by AirNav.

 

 
 

FBO, Fuel Providers, and Aircraft Ground Support

  
 Business Name 
 
 Contact 
 
 Services / Description 
 
Fuel Prices
 
Comments
  
Hackettstown Airport 908-852-4664
no information available

If you are affiliated with Hackettstown Airport and would like to show here your services, contact info, web link, logo, and more, click here
100LL
SS $5.10 
 Updated 11-Feb-2019
 
   1 read write
SS=Self service
Update Fuel Prices
 

Would you like to see your business listed on this page?

 If your business provides an interesting product or service to pilots, flight crews, aircraft, or users of the Hackettstown Airport, you should consider listing it here.  To start the listing process, click on the button below
 
Add a business
 

Other Pages about Hackettstown Airport

www.hackettstownairport.com
 
Update a link
 
Copyright © AirNav, LLC. All rights reserved. Privacy Policy  Contact